Search for airport 
image banner adimage banner ad
image banner ad

SVSD - Sabana Dulce

Located in Portuguesa, Venezuela

ICAO - SVSD, IATA -

Data provided by Airmate  

General information

Coordinates: N8°48'60" W69°38'0"
Elevation is 390 feet MSL.
 
Rated:
View ratings: [VIEW]


View others Airports in Portuguesa

Operational data

Open for public use
Current time UTC:
Current local time:
Weather at : SVGU - Guanare Ntl ( 27 km )
METAR: SVGU 091902Z AUTO 21009KT NCD 30/24 Q1015
View NOTAMs / SUP AIP / TFR affecting this airport [VIEW]
Communications frequencies: [VIEW]

Runways:

RWY identifierQFULength (ft)Width (ft)SurfaceLDA (ft)
0900
2700

Airport contact information

Address: Portuguesa Venezuela

Satellite view of SVSD